Flight Track Log - Related Links

Times and Time Zones

All times are in EDT time to prevent confusion due to time zone crossing. See the SWA4202 flight status page for this flight to view local times or setup timezone preferences in your user account.

Time Position Orientation Groundspeed Altitude Reporting Facility
EDT Latitude Longitude Course Direction KTS MPH feet Rate Location/Type
Thu 01:37:09 PM 35.8561 -78.8108 221° Southwest 173 199 1,300  Level Washington Center
Thu 01:38:03 PM 35.8175 -78.8528 221° Southwest 210 242 2,900 2,563 Climbing Washington Center
Thu 01:38:52 PM 35.8097 -78.9114 261° West 275 316 5,700 2,236 Climbing Washington Center
Thu 01:39:53 PM 35.8619 -78.9750 270° West 277 319 7,000 1,686 Climbing Washington Center
Thu 01:40:00 PM 35.8500 -79.0423 270° West  Level FlightAware Approximate
Thu 01:40:53 PM 35.8703 -79.0525 278° West 272 313 9,100  Level Washington Center
Thu 01:41:54 PM 35.8569 -79.1542 261° West 278 320 11,400 2,182 Climbing Washington Center
Thu 01:42:54 PM 35.8408 -79.2664 260° West 317 365 13,500 2,182 Climbing Washington Center
Thu 01:43:55 PM 35.8308 -79.3889 264° West 356 410 15,800 2,281 Climbing Washington Center
Thu 01:46:56 PM 35.7753 -79.7669 260° West 387 445 22,700 2,166 Climbing Atlanta Center
Thu 01:47:56 PM 35.7528 -79.9011 258° West 392 451 24,500 1,600 Climbing Atlanta Center
Thu 01:49:56 PM 35.7036 -80.1797 300° West 407 468 27,500 1,650 Climbing Atlanta Center
Thu 01:51:56 PM 35.6575 -80.4528 258° West 418 481 31,100 1,500 Climbing Atlanta Center
Thu 01:52:56 PM 35.6594 -80.5933 271° West 418 481 32,000 600 Climbing Atlanta Center
Thu 01:53:00 PM 35.6771 -80.5223 300° West  Level FlightAware Approximate
Thu 01:53:56 PM 35.6675 -80.7311 274° West 408 470 32,300  Level Atlanta Center
Thu 01:54:56 PM 35.6750 -80.8636 274° West 403 464 34,000 1,350 Climbing Atlanta Center
Thu 01:55:56 PM 35.6828 -80.9989 274° West 403 464 35,000 950 Climbing Atlanta Center
Thu 01:56:56 PM 35.6881 -81.1342 273° West 403 464 35,900 500 Climbing Atlanta Center
Thu 01:57:56 PM 35.6933 -81.2722 273° West 403 464 36,000 25 Climbing Atlanta Center
Thu 02:00:56 PM 35.7142 -81.6628 274° West 400 460 36,000  Level Atlanta Center
Thu 02:01:56 PM 35.7206 -81.7956 273° West 400 460 36,000  Level Atlanta Center
Thu 02:02:56 PM 35.7272 -81.9283 274° West 395 455 36,000  Level Atlanta Center
Thu 02:03:56 PM 35.7294 -82.0589 271° West 390 449 36,000  Level Atlanta Center
Thu 02:04:00 PM 35.7386 -82.0417 274° West  Level FlightAware Approximate
Thu 02:04:56 PM 35.7378 -82.1917 274° West 385 443 36,000  Level Atlanta Center
Thu 02:05:56 PM 35.7397 -82.3347 271° West 376 433 36,000  Level Atlanta Center
Thu 02:09:56 PM 35.7583 -82.8489 272° West 386 444 36,000  Level Atlanta Center
Thu 02:10:56 PM 35.7617 -82.9819 272° West 386 444 36,000  Level Atlanta Center
Thu 02:12:56 PM 35.7722 -83.2606 280° West 386 444 36,000  Level Atlanta Center
Thu 02:13:56 PM 35.7750 -83.3936 272° West 386 444 36,000  Level Atlanta Center
Thu 02:14:56 PM 35.7819 -83.5267 274° West 386 444 36,000  Level Atlanta Center
Thu 02:15:00 PM 35.8390 -83.5156 280° West  Level Estimated
Thu 02:16:56 PM 35.7869 -83.7903 271° West 386 444 36,000  Level Atlanta Center
Thu 02:17:56 PM 35.7911 -83.9236 272° West 386 444 36,000  Level Atlanta Center
Thu 02:20:56 PM 35.7992 -84.3358 273° West 404 465 36,000  Level Atlanta Center
Thu 02:22:00 PM 35.8140 -84.4650 273° West  Level FlightAware Approximate
Thu 02:22:50 PM 35.8056 -84.5811 272° West 401 461 36,000  Level Memphis Center
Thu 02:23:52 PM 35.8081 -84.7183 271° West 401 461 36,000  Level Memphis Center
Thu 02:25:56 PM 35.8122 -85.0164 271° West 401 461 36,000  Level Memphis Center
Thu 02:28:01 PM 35.8169 -85.2736 271° West 395 455 36,000  Level Memphis Center
Thu 02:29:03 PM 35.8192 -85.4367 271° West 395 455 36,000  Level Memphis Center
Thu 02:30:05 PM 35.8206 -85.5708 271° West 395 455 36,000  Level Memphis Center
Thu 02:31:07 PM 35.8219 -85.7047 271° West 394 453 36,000  Level Memphis Center
Thu 02:32:09 PM 35.8236 -85.8528 271° West 393 452 36,000  Level Memphis Center
Thu 02:33:11 PM 35.8250 -85.9883 271° West 393 452 36,000  Level Memphis Center
Thu 02:34:13 PM 35.8247 -86.1231 270° West 392 451 36,000  Level Memphis Center
Thu 02:35:15 PM 35.8256 -86.2581 270° West 392 451 36,000  Level Memphis Center
Thu 02:36:17 PM 35.8275 -86.3933 271° West 391 450 36,000  Level Memphis Center
Thu 02:38:22 PM 35.8283 -86.6656 270° West 391 450 36,000  Level Memphis Center
Thu 02:39:24 PM 35.8289 -86.8017 270° West 391 450 36,000  Level Memphis Center
Thu 02:41:28 PM 35.8297 -87.0986 270° West 392 451 36,000  Level Memphis Center
Thu 02:42:30 PM 35.8292 -87.2350 270° West 392 451 36,000  Level Memphis Center
Thu 02:43:32 PM 35.8297 -87.3731 270° West 393 452 36,000  Level Memphis Center
Thu 02:44:34 PM 35.8283 -87.5092 269° West 393 452 36,000  Level Memphis Center
Thu 02:45:36 PM 35.8331 -87.6467 272° West 394 453 36,000  Level Memphis Center
Thu 02:47:40 PM 35.8531 -87.9203 275° West 395 455 36,000  Level Memphis Center
Thu 02:48:43 PM 35.8633 -88.0775 275° West 395 455 36,000  Level Memphis Center
Thu 02:50:47 PM 35.8819 -88.3447 275° West 390 449 36,000  Level Memphis Center
Thu 02:52:51 PM 35.9000 -88.6242 275° West 390 449 36,000  Level Memphis Center
Thu 02:53:53 PM 35.9092 -88.7567 275° West 390 449 36,000  Level Memphis Center
Thu 02:56:59 PM 35.9317 -89.1564 274° West 391 450 36,000  Level Memphis Center
Thu 02:59:04 PM 35.9489 -89.4522 278° West 392 451 36,000  Level Memphis Center
Thu 03:00:06 PM 35.9561 -89.5853 274° West 393 452 36,000  Level Memphis Center
Thu 03:01:08 PM 35.9644 -89.7181 274° West 392 451 36,000  Level Memphis Center
Thu 03:02:00 PM 35.9758 -89.8271 274° West  Level FlightAware Approximate
Thu 03:02:10 PM 35.9714 -89.8514 274° West 392 451 36,000  Level Memphis Center
Thu 03:03:12 PM 35.9789 -89.9869 274° West 393 452 36,000  Level Memphis Center
Thu 03:04:14 PM 35.9867 -90.1461 274° West 393 452 36,000  Level Memphis Center
Thu 03:05:16 PM 35.9942 -90.2767 274° West 388 447 36,000  Level Memphis Center
Thu 03:06:18 PM 35.9992 -90.4086 273° West 388 447 36,000  Level Memphis Center
Thu 03:07:20 PM 36.0061 -90.5386 274° West 387 445 36,000  Level Memphis Center
Thu 03:08:22 PM 36.0111 -90.6697 273° West 386 444 36,000  Level Memphis Center
Thu 03:09:24 PM 36.0192 -90.8258 274° West 386 444 36,000  Level Memphis Center
Thu 03:10:27 PM 36.0244 -90.9578 273° West 386 444 36,000  Level Memphis Center
Thu 03:11:29 PM 36.0306 -91.0903 273° West 386 444 36,000  Level Memphis Center
Thu 03:12:31 PM 36.0364 -91.2372 273° West 386 444 36,000  Level Memphis Center
Thu 03:13:33 PM 36.0425 -91.3703 273° West 386 444 36,000  Level Memphis Center
Thu 03:14:35 PM 36.0469 -91.5017 272° West 386 444 36,000  Level Memphis Center
Thu 03:15:37 PM 36.0519 -91.6378 273° West 386 444 36,000  Level Memphis Center
Thu 03:16:40 PM 36.0572 -91.7703 273° West 386 444 36,000  Level Memphis Center
Thu 03:17:42 PM 36.0642 -91.9044 274° West 387 445 36,000  Level Memphis Center
Thu 03:18:44 PM 36.0681 -92.0642 272° West 387 445 36,000  Level Memphis Center
Thu 03:20:48 PM 36.0772 -92.3242 273° West 387 445 36,000  Level Memphis Center
Thu 03:21:50 PM 36.0808 -92.4572 272° West 388 447 36,000  Level Memphis Center
Thu 03:23:54 PM 36.0900 -92.7517 272° West 390 449 36,000 290 Level Memphis Center
Thu 03:25:00 PM 36.0945 -92.8968 272° West  Level FlightAware Approximate
Thu 03:25:58 PM 36.0972 -93.0189 272° West 391 450 37,200  Level Memphis Center
Thu 03:27:00 PM 36.1011 -93.1542 272° West 393 452 38,000 387 Climbing Memphis Center
Thu 03:28:02 PM 36.1050 -93.2889 272° West 393 452 38,000  Level Memphis Center
Thu 03:29:05 PM 36.1083 -93.4478 272° West 393 452 38,000  Level Memphis Center
Thu 03:31:05 PM 36.1178 -93.7131 273° West 392 451 38,000  Level Kansas City Center
Thu 03:32:07 PM 36.1197 -93.8478 271° West 392 451 38,000  Level Kansas City Center
Thu 03:33:13 PM 36.1194 -93.9844 270° West 392 451 38,000  Level Memphis Center
Thu 03:34:15 PM 36.1231 -94.1244 272° West 392 451 38,000  Level Memphis Center
Thu 03:35:17 PM 36.1253 -94.2858 271° West 392 451 38,000  Level Memphis Center
Thu 03:36:19 PM 36.1275 -94.4236 271° West 393 452 38,000  Level Memphis Center
Thu 03:38:19 PM 36.1317 -94.6986 271° West 397 457 38,000  Level Kansas City Center
Thu 03:39:26 PM 36.1336 -94.8353 271° West 396 456 38,000  Level Memphis Center
Thu 03:40:23 PM 36.1350 -94.9756 271° West 399 459 38,000  Level Kansas City Center
Thu 03:41:25 PM 36.1356 -95.1036 270° West 400 460 38,000  Level Kansas City Center
Thu 03:42:27 PM 36.1364 -95.2642 270° West 395 455 38,000  Level Kansas City Center
Thu 03:43:29 PM 36.1378 -95.3986 271° West 395 455 38,000  Level Kansas City Center
Thu 03:45:38 PM 36.1397 -95.6842 271° West 393 452 38,000  Level Memphis Center
Thu 03:46:40 PM 36.1397 -95.8192 270° West 392 451 38,000  Level Memphis Center
Thu 03:47:38 PM 36.1411 -95.9531 271° West 391 450 38,000  Level Kansas City Center
Thu 03:48:40 PM 36.1419 -96.0856 270° West 389 448 38,000  Level Kansas City Center
Thu 03:49:42 PM 36.1417 -96.2186 270° West 388 447 38,000  Level Kansas City Center
Thu 03:50:44 PM 36.1417 -96.3503 270° West 387 445 38,000  Level Kansas City Center
Thu 03:52:00 PM 36.1412 -96.5176 270° West  Level FlightAware Approximate
Thu 03:52:48 PM 36.1422 -96.6169 270° West 387 445 38,000  Level Kansas City Center
Thu 03:53:50 PM 36.1417 -96.7747 270° West 387 445 38,000  Level Kansas City Center
Thu 03:54:52 PM 36.1406 -96.9050 269° West 386 444 38,000  Level Kansas City Center
Thu 03:56:56 PM 36.1381 -97.1683 269° West 386 444 38,000  Level Kansas City Center
Thu 03:57:59 PM 36.1378 -97.2983 270° West 385 443 38,000  Level Kansas City Center
Thu 04:00:03 PM 36.1356 -97.5861 269° West 384 442 38,000  Level Kansas City Center
Thu 04:02:07 PM 36.1325 -97.8467 269° West 383 441 38,000  Level Kansas City Center
Thu 04:03:09 PM 36.1289 -97.9775 268° West 383 441 38,000  Level Kansas City Center
Thu 04:06:15 PM 36.1236 -98.3800 269° West 382 440 38,000  Level Kansas City Center
Thu 04:07:17 PM 36.1208 -98.5094 269° West 381 438 38,000  Level Kansas City Center
Thu 04:08:19 PM 36.1181 -98.6650 269° West 379 436 38,000  Level Kansas City Center
Thu 04:10:50 PM 36.1103 -98.9886 269° West 376 433 38,000  Level Albuquerque Center
Thu 04:11:26 PM 36.1086 -99.0647 268° West 379 436 38,000  Level Kansas City Center
Thu 04:12:28 PM 36.1067 -99.1956 269° West 379 436 38,000  Level Kansas City Center
Thu 04:13:30 PM 36.1033 -99.3272 268° West 379 436 38,000  Level Kansas City Center
Thu 04:15:34 PM 36.0953 -99.5958 268° West 380 437 38,000  Level Kansas City Center
Thu 04:16:36 PM 36.0908 -99.7267 268° West 381 438 38,000  Level Kansas City Center
Thu 04:17:38 PM 36.0867 -99.8864 268° West 384 442 38,000  Level Kansas City Center
Thu 04:18:40 PM 36.0822 -100.0175 268° West 384 442 38,000  Level Kansas City Center
Thu 04:19:42 PM 36.0769 -100.1506 267° West 384 442 38,000  Level Kansas City Center
Thu 04:20:44 PM 36.0728 -100.2831 268° West 384 442 38,000  Level Kansas City Center
Thu 04:21:46 PM 36.0683 -100.4153 268° West 385 443 38,000  Level Kansas City Center
Thu 04:23:15 PM 36.0606 -100.6269 267° West 386 444 38,000  Level Albuquerque Center
Thu 04:24:17 PM 36.0561 -100.7594 268° West 386 444 38,000  Level Albuquerque Center
Thu 04:25:19 PM 36.0511 -100.8917 267° West 386 444 38,000  Level Albuquerque Center
Thu 04:26:21 PM 36.0464 -101.0236 268° West 386 444 38,000  Level Albuquerque Center
Thu 04:27:23 PM 36.0411 -101.1567 267° West 386 444 38,000  Level Albuquerque Center
Thu 04:29:01 PM 36.0311 -101.3831 267° West 385 443 38,000  Level Kansas City Center
Thu 04:30:03 PM 36.0261 -101.5147 267° West 386 444 38,000  Level Kansas City Center
Thu 04:31:05 PM 36.0200 -101.6464 267° West 385 443 38,000  Level Kansas City Center
Thu 04:35:40 PM 35.9906 -102.2522 266° West 387 445 38,000  Level Albuquerque Center
Thu 04:37:44 PM 35.9753 -102.5439 274° West 388 447 38,000  Level Albuquerque Center
Thu 04:38:46 PM 35.9692 -102.6750 267° West 388 447 38,000  Level Albuquerque Center
Thu 04:39:48 PM 35.9619 -102.8061 266° West 388 447 38,000  Level Albuquerque Center
Thu 04:40:00 PM 35.9594 -102.7604 266° West  Level FlightAware Approximate
Thu 04:40:50 PM 35.9547 -102.9417 266° West 387 445 38,000  Level Albuquerque Center
Thu 04:41:00 PM 35.9518 -102.8918 266° West  Level FlightAware Approximate
Thu 04:41:52 PM 35.9472 -103.0725 266° West 385 443 38,000  Level Albuquerque Center
Thu 04:42:55 PM 35.9403 -103.2031 266° West 382 440 38,000  Level Albuquerque Center
Thu 04:43:57 PM 35.9308 -103.3564 266° West 382 440 38,000  Level Albuquerque Center
Thu 04:44:59 PM 35.9231 -103.4864 266° West 382 440 38,000  Level Albuquerque Center
Thu 04:46:01 PM 35.9167 -103.6186 267° West 382 440 38,000  Level Albuquerque Center
Thu 04:47:03 PM 35.9081 -103.7500 265° West 382 440 38,000  Level Albuquerque Center
Thu 04:49:07 PM 35.8911 -104.0125 266° West 382 440 38,000  Level Albuquerque Center
Thu 04:50:09 PM 35.8806 -104.1667 265° West 382 440 38,000  Level Albuquerque Center
Thu 04:51:11 PM 35.8714 -104.3017 265° West 389 448 38,000  Level Albuquerque Center
Thu 04:52:13 PM 35.8622 -104.4369 265° West 394 453 38,000  Level Albuquerque Center
Thu 04:53:16 PM 35.8522 -104.5672 265° West 388 447 38,000  Level Albuquerque Center
Thu 04:54:18 PM 35.8422 -104.7008 265° West 388 447 38,000  Level Albuquerque Center
Thu 04:55:20 PM 35.8331 -104.8306 265° West 383 441 38,000  Level Albuquerque Center
Thu 04:57:24 PM 35.8131 -105.1142 265° West 382 440 38,000  Level Albuquerque Center
Thu 04:58:26 PM 35.8028 -105.2444 264° West 382 440 38,000  Level Albuquerque Center
Thu 04:59:28 PM 35.7919 -105.3747 264° West 382 440 38,000  Level Albuquerque Center
Thu 05:00:30 PM 35.7839 -105.5044 266° West 380 437 38,000  Level Albuquerque Center
Thu 05:01:32 PM 35.7731 -105.6397 264° West 389 448 38,000  Level Albuquerque Center
Thu 05:02:34 PM 35.7628 -105.7725 265° West 389 448 38,000  Level Albuquerque Center
Thu 05:03:36 PM 35.7514 -105.9286 265° West 392 451 38,000  Level Albuquerque Center
Thu 05:05:40 PM 35.7278 -106.1992 263° West 394 453 38,000  Level Albuquerque Center
Thu 05:06:42 PM 35.7156 -106.3417 264° West 393 452 38,000  Level Albuquerque Center
Thu 05:07:44 PM 35.7044 -106.4744 264° West 393 452 38,000  Level Albuquerque Center
Thu 05:09:48 PM 35.6822 -106.7350 262° West 389 448 38,000  Level Albuquerque Center
Thu 05:10:50 PM 35.6697 -106.8819 264° West 389 448 38,000  Level Albuquerque Center
Thu 05:13:56 PM 35.6331 -107.2822 264° West 389 448 38,000  Level Albuquerque Center
Thu 05:17:03 PM 35.5958 -107.7022 263° West 388 447 38,000  Level Albuquerque Center
Thu 05:18:05 PM 35.5825 -107.8286 263° West 388 447 38,000  Level Albuquerque Center
Thu 05:19:00 PM 35.5575 -107.9447 264° West  Level FlightAware Approximate
Thu 05:19:07 PM 35.5686 -107.9744 263° West 388 447 38,000  Level Albuquerque Center
Thu 05:20:09 PM 35.5564 -108.0997 263° West 388 447 38,000  Level Albuquerque Center
Thu 05:22:00 PM 35.5206 -108.3314 263° West  Level FlightAware Approximate
Thu 05:22:13 PM 35.5286 -108.3692 263° West 385 443 38,000  Level Albuquerque Center
Thu 05:23:15 PM 35.5158 -108.4914 263° West 382 440 38,000  Level Albuquerque Center
Thu 05:25:19 PM 35.4883 -108.7575 263° West 380 437 38,000  Level Albuquerque Center
Thu 05:28:25 PM 35.4906 -109.1653 274° West 378 435 38,000  Level Albuquerque Center
Thu 05:30:30 PM 35.5031 -109.4311 273° West 377 434 38,000  Level Albuquerque Center
Thu 05:32:34 PM 35.5147 -109.6917 273° West 370 426 38,000  Level Albuquerque Center
Thu 05:35:19 PM 35.5261 -110.0044 273° West 362 417 38,000  Level Los Angeles Center
Thu 05:36:21 PM 35.5344 -110.1514 274° West 362 417 38,000  Level Los Angeles Center
Thu 05:37:23 PM 35.5383 -110.2736 272° West 362 417 38,000  Level Los Angeles Center
Thu 05:38:25 PM 35.5431 -110.3969 273° West 362 417 38,000 -493 Level Los Angeles Center
Thu 05:39:49 PM 35.5481 -110.5750 272° West 362 417 36,800 -863 Descending Albuquerque Center
Thu 05:40:51 PM 35.5531 -110.6947 273° West 363 418 35,900 -968 Descending Albuquerque Center
Thu 05:41:53 PM 35.5583 -110.8361 273° West 367 422 34,800 -968 Descending Albuquerque Center
Thu 05:42:55 PM 35.5617 -110.9589 272° West 372 428 33,900 -968 Descending Albuquerque Center
Thu 05:43:57 PM 35.5661 -111.1047 272° West 378 435 32,800 -1,000 Descending Albuquerque Center
Thu 05:46:01 PM 35.5761 -111.3789 273° West 385 443 30,800 -903 Descending Albuquerque Center
Thu 05:47:03 PM 35.5811 -111.4975 273° West 405 466 30,000 -289 Descending Albuquerque Center
Thu 05:48:47 PM 35.5872 -111.7422 272° West 400 460 30,000  Level Los Angeles Center
Thu 05:51:53 PM 35.5992 -112.1750 272° West 397 457 30,000 -48 Level Los Angeles Center
Thu 05:52:56 PM 35.6022 -112.3097 272° West 397 457 29,800 -576 Descending Los Angeles Center
Thu 05:53:58 PM 35.6050 -112.4447 271° West 397 457 28,800 -871 Descending Los Angeles Center
Thu 05:55:00 PM 35.6089 -112.5808 272° West 400 460 28,000 -387 Descending Los Angeles Center
Thu 05:56:02 PM 35.6117 -112.7358 271° West 405 466 28,000  Level Los Angeles Center
Thu 05:57:04 PM 35.6142 -112.8731 271° West 404 465 28,000  Level Los Angeles Center
Thu 05:58:06 PM 35.6161 -113.0117 271° West 403 464 28,000  Level Los Angeles Center
Thu 05:59:08 PM 35.6189 -113.1756 271° West 402 463 28,000  Level Los Angeles Center
Thu 06:00:11 PM 35.6219 -113.3136 272° West 401 461 28,000  Level Los Angeles Center
Thu 06:01:13 PM 35.6239 -113.4525 271° West 404 465 28,000 -1,548 Level Los Angeles Center
Thu 06:03:17 PM 35.6492 -113.7178 277° West 388 447 23,200 -2,355 Descending Los Angeles Center
Thu 06:04:19 PM 35.6667 -113.8403 280° West 382 440 20,700 -2,516 Descending Los Angeles Center
Thu 06:05:21 PM 35.6881 -113.9886 280° West 373 429 18,000 -2,048 Descending Los Angeles Center
Thu 06:08:28 PM 35.7372 -114.3450 270° West 341 392 12,200 -1,158 Descending Los Angeles Center
Thu 06:10:32 PM 35.8836 -114.4531 338° Northwest 294 338 12,000 -519 Descending Los Angeles Center
Thu 06:11:33 PM 35.9603 -114.4858 341° North 293 337 10,600 -960 Descending Los Angeles Center
Thu 06:12:37 PM 36.0325 -114.5222 338° Northwest 269 310 10,000 -333 Descending Los Angeles Center
Thu 06:13:39 PM 36.0514 -114.5992 287° West 245 282 9,900 -677 Descending Los Angeles Center
Thu 06:14:00 PM 36.0667 -114.8446 270° West  Level FlightAware Approximate
Thu 06:14:41 PM 36.0656 -114.6872 281° West 237 273 8,600  Level Los Angeles Center
Thu 06:16:49 PM 36.0736 -114.8603 270° West 233 268 6,300 -839 Descending Los Angeles Center
Thu 06:17:47 PM 36.0742 -114.9236 271° West 218 251 6,000 -836 Descending Los Angeles Center
Thu 06:18:51 PM 36.0725 -114.9936 268° West 183 211 4,600 -1,161 Descending Los Angeles Center
Thu 06:20:00 PM 36.0667 -115.1482 270° West  Level FlightAware Approximate
Thu 06:20:53 PM 36.0742 -115.1103 270° West 149 171 2,400  Level Los Angeles Center
Thu 06:21:56 PM 36.0733 -115.1472 268° West 136 157 2,100 -286 Descending Los Angeles Center
Thu 06:23:00 PM 36.0667 -115.1500 270° West  Level FlightAware Approximate

Login

Don't have an account? Register now (free) for customized features, flight alerts, and more!